Latest Weather Observations for Bradshaw-Angallari Valley (Defence)

IDD60801

Issued at 11:41 pm CST Sunday 15 September 2019 (issued every 10 minutes, with the page automatically refreshed every 10 minutes)

About weather observations | Map of weather stations | Latest weather observations for NT | Other Formats
Station Details ID: 014808 Name: BRADSHAW - ANGALLARI VALLEY (DEFENCE) Lat: -15.44 Lon: 130.57 Height: 60.0 m
Data from the previous 72 hours. | See also: Recent months at Bradshaw-Angallari Valley (Defence)
Date/Time
CST
Temp
°C
App
Temp
°C
Dew
Point
°C
Rel
Hum
%
Delta-T
°C
Wind Press
QNH
hPa
Press
MSL
hPa
Rain since
9am
mm
Dir  Spd
km/h
Gust
km/h
Spd
kts
Gust
kts
15/11:30pm 26.8 23.2 -2.0 15 13.0 ESE 7 9 4 5 1014.2 1013.8 0.0
15/11:00pm 26.6 22.9 -3.1 14 13.1 ESE 7 9 4 5 1014.3 1013.9 0.0
15/10:30pm 26.3 22.7 -3.3 14 13.0 ESE 6 7 3 4 1014.2 1013.8 0.0
15/10:00pm 27.6 24.0 -2.3 14 13.5 ESE 7 9 4 5 1014.2 1013.8 0.0
15/09:30pm 28.3 24.6 -2.7 13 14.0 ESE 7 9 4 5 1014.2 1013.8 0.0
15/09:00pm 28.7 25.1 -2.4 13 14.1 SE 7 9 4 5 1013.9 1013.5 0.0
15/08:30pm 28.7 25.1 -2.4 13 14.1 SE 7 9 4 5 1013.8 1013.4 0.0
15/08:00pm 29.8 26.3 -1.5 13 14.6 SE 7 7 4 4 1013.5 1013.1 0.0
15/07:30pm 30.9 27.5 -1.8 12 15.3 SE 6 9 3 5 1013.3 1012.9 0.0
15/07:00pm 32.0 28.4 -2.1 11 16.0 SE 7 9 4 5 1012.9 1012.5 0.0
15/06:30pm 33.5 29.5 -2.3 10 16.9 ESE 9 15 5 8 1012.6 1012.2 0.0
15/06:00pm 34.3 30.4 -1.7 10 17.3 SE 9 15 5 8 1012.4 1012.0 0.0
15/05:30pm 35.0 30.8 -1.1 10 17.6 ESE 11 24 6 13 1012.4 1012.0 0.0
15/05:00pm 35.2 30.2 -1.0 10 17.7 ESE 15 32 8 17 1012.3 1011.9 0.0
15/04:30pm 34.8 30.3 0.0 11 17.2 ESE 13 26 7 14 1012.2 1011.8 0.0
15/04:00pm 35.5 30.4 0.6 11 17.5 ESE 17 26 9 14 1012.3 1011.9 0.0
15/03:30pm 35.7 31.4 0.7 11 17.6 ESE 13 19 7 10 1012.5 1012.1 0.0
15/03:00pm 35.7 31.5 1.9 12 17.3 ESE 13 22 7 12 1012.9 1012.5 0.0
15/02:30pm 34.9 29.9 1.3 12 17.0 E 17 30 9 16 1013.3 1012.9 0.0
15/02:00pm 35.8 31.5 3.1 13 17.1 SE 15 37 8 20 1013.5 1013.1 0.0
15/01:30pm 34.7 29.5 2.3 13 16.6 E 19 35 10 19 1014.4 1014.0 0.0
15/01:00pm 34.5 29.2 2.1 13 16.5 ESE 19 41 10 22 1014.9 1014.5 0.0
15/12:30pm 34.2 28.0 1.9 13 16.4 E 24 44 13 24 1015.4 1015.0 0.0
15/12:00pm 34.5 29.0 2.1 13 16.5 E 20 32 11 17 1015.9 1015.5 0.0
15/11:30am 34.3 30.0 3.0 14 16.2 ENE 15 28 8 15 1016.8 1016.3 0.0
15/11:00am 32.1 27.1 1.3 14 15.3 NE 17 30 9 16 1017.4 1016.9 0.0
15/10:30am 31.5 26.3 -0.2 13 15.3 NE 17 28 9 15 1017.8 1017.3 0.0
15/10:00am 30.1 24.8 -0.3 14 14.5 NE 17 28 9 15 1018.1 1017.7 0.0
15/09:30am 29.6 24.8 0.2 15 14.1 NE 15 20 8 11 1018.5 1018.1 0.0
15/09:00am 28.1 23.8 0.8 17 13.0 NE 13 19 7 10 1018.7 1018.3 0.0
15/08:30am 27.4 24.0 1.8 19 12.4 ENE 9 15 5 8 1018.6 1018.2 0.0
15/08:00am 26.1 22.7 2.1 21 11.6 E 9 13 5 7 1018.3 1017.9 0.0
15/07:30am 24.5 21.2 2.6 24 10.5 E 9 15 5 8 1017.8 1017.3 0.0
15/07:00am 23.5 19.4 2.4 25 10.1 E 13 19 7 10 1017.3 1016.8 0.0
15/06:30am 21.7 18.9 3.4 30 8.8 E 7 9 4 5 1017.1 1016.6 0.0
15/06:00am 22.0 18.8 3.2 29 9.0 ENE 9 13 5 7 1016.7 1016.2 0.0
15/05:30am 22.4 19.3 3.5 29 9.1 NE 9 13 5 7 1016.2 1015.8 0.0
15/05:00am 22.9 20.1 3.4 28 9.4 NE 7 9 4 5 1016.0 1015.6 0.0
15/04:30am 22.8 20.0 3.4 28 9.4 NE 7 11 4 6 1015.6 1015.2 0.0
15/04:00am 22.1 19.7 2.2 27 9.4 NE 4 7 2 4 1015.1 1014.7 0.0
15/03:30am 22.2 20.0 1.3 25 9.7 N 2 4 1 2 1015.1 1014.7 0.0
15/03:00am 24.2 20.7 1.2 22 10.8 NE 9 15 5 8 1014.9 1014.5 0.0
15/02:30am 26.3 22.7 2.9 22 11.5 ENE 11 15 6 8 1014.9 1014.5 0.0
15/02:00am 26.7 23.4 2.6 21 11.8 ENE 9 17 5 9 1015.0 1014.6 0.0
15/01:30am 27.2 23.2 0.8 18 12.6 ENE 11 15 6 8 1015.1 1014.7 0.0
15/01:00am 26.3 22.9 -0.7 17 12.4 E 7 9 4 5 1015.0 1014.6 0.0
15/12:30am 26.5 23.1 -0.5 17 12.5 E 7 11 4 6 1015.1 1014.7 0.0
15/12:00am 26.5 23.1 -0.5 17 12.5 E 7 9 4 5 1015.1 1014.7 0.0
 
Date/Time
CST
Temp
°C
App
Temp
°C
Dew
Point
°C
Rel
Hum
%
Delta-T
°C
Wind Press
QNH
hPa
Press
MSL
hPa
Rain since
9am
mm
Dir  Spd
km/h
Gust
km/h
Spd
kts
Gust
kts
14/11:30pm 27.0 23.6 -0.9 16 12.8 ESE 7 9 4 5 1015.2 1014.8 0.0
14/11:00pm 27.3 23.9 -0.7 16 13.0 ESE 7 9 4 5 1015.2 1014.8 0.0
14/10:30pm 26.6 23.3 -1.3 16 12.7 ESE 6 9 3 5 1015.3 1014.9 0.0
14/10:00pm 27.5 24.2 -1.4 15 13.2 ESE 6 7 3 4 1015.3 1014.9 0.0
14/09:30pm 27.5 24.0 -1.4 15 13.2 E 7 9 4 5 1015.3 1014.9 0.0
14/09:00pm 27.6 24.2 -2.3 14 13.5 SE 6 7 3 4 1015.1 1014.7 0.0
14/08:30pm 28.9 26.0 -1.2 14 14.0 E 4 6 2 3 1014.9 1014.5 0.0
14/08:00pm 30.2 26.9 -1.2 13 14.7 ESE 6 7 3 4 1014.8 1014.4 0.0
14/07:30pm 31.1 27.8 -1.6 12 15.3 SE 6 7 3 4 1014.5 1014.1 0.0
14/07:00pm 32.4 28.5 -1.8 11 16.1 ESE 9 13 5 7 1014.1 1013.7 0.0
14/06:30pm 33.4 29.2 -1.0 11 16.6 ESE 11 17 6 9 1013.7 1013.3 0.0
14/06:00pm 34.2 29.3 -0.4 11 16.9 E 15 26 8 14 1013.5 1013.1 0.0
14/05:30pm 34.9 30.8 0.1 11 17.2 SE 11 22 6 12 1013.4 1013.0 0.0
14/05:00pm 34.7 29.9 -0.1 11 17.2 SE 15 28 8 15 1013.3 1012.9 0.0
14/04:30pm 35.4 31.8 0.5 11 17.5 ESE 9 26 5 14 1013.3 1012.9 0.0
14/04:00pm 35.7 30.2 0.7 11 17.6 ESE 19 35 10 19 1013.4 1013.0 0.0
14/03:30pm 35.1 30.5 1.5 12 17.0 SE 15 30 8 16 1013.8 1013.4 0.0
14/03:00pm 35.0 29.6 1.4 12 17.0 SE 19 35 10 19 1014.0 1013.6 0.0
14/02:30pm 34.2 29.9 0.8 12 16.7 SE 13 24 7 13 1014.5 1014.1 0.0
14/02:00pm 34.2 28.7 0.8 12 16.7 ESE 19 32 10 17 1015.1 1014.7 0.0
14/01:30pm 34.3 28.3 0.8 12 16.7 ESE 22 43 12 23 1015.6 1015.2 0.0
14/01:00pm 33.5 28.1 1.3 13 16.1 E 19 43 10 23 1016.3 1015.9 0.0
14/12:30pm 33.3 27.1 2.2 14 15.8 E 24 39 13 21 1017.1 1016.6 0.0
14/12:00pm 32.3 26.1 4.2 17 14.6 E 26 39 14 21 1017.8 1017.3 0.0
14/11:30am 32.6 27.6 4.4 17 14.8 E 20 35 11 19 1018.3 1017.9 0.0
14/11:00am 31.6 26.0 5.2 19 13.9 E 24 35 13 19 1019.0 1018.6 0.0
14/10:30am 31.1 26.0 6.2 21 13.3 ENE 22 33 12 18 1019.4 1019.0 0.0
14/10:00am 30.1 25.4 7.9 25 12.2 NE 22 37 12 20 1019.9 1019.5 0.0
14/09:30am 28.0 25.7 5.6 24 11.6 NE 7 13 4 7 1019.9 1019.5 0.0
14/09:00am 26.8 23.9 4.6 24 11.2 NE 9 15 5 8 1020.1 1019.7 0.0
14/08:30am 26.2 22.1 4.6 25 10.9 NE 15 20 8 11 1019.9 1019.5 0.0
14/08:00am 25.3 21.6 4.4 26 10.5 ENE 13 22 7 12 1019.6 1019.2 0.0
14/07:30am 24.3 20.9 4.1 27 10.0 ENE 11 19 6 10 1019.3 1018.9 0.0
14/07:00am 23.6 20.1 3.5 27 9.8 ENE 11 17 6 9 1019.0 1018.6 0.0
14/06:30am 23.5 20.3 2.9 26 9.9 ENE 9 13 5 7 1018.4 1018.0 0.0
14/06:00am 23.9 20.3 2.7 25 10.2 E 11 17 6 9 1017.8 1017.3 0.0
14/05:30am 24.2 20.2 2.9 25 10.3 E 13 20 7 11 1017.3 1016.8 0.0
14/05:00am 24.6 20.6 2.7 24 10.6 E 13 22 7 12 1017.0 1016.5 0.0
14/04:30am 24.9 20.8 2.4 23 10.8 E 13 19 7 10 1016.7 1016.2 0.0
14/04:00am 25.2 21.2 0.7 20 11.5 E 11 20 6 11 1016.6 1016.1 0.0
14/03:30am 25.1 21.0 -3.3 15 12.3 ESE 9 19 5 10 1016.6 1016.1 0.0
14/03:00am 26.1 20.8 -3.5 14 12.9 ESE 15 24 8 13 1016.6 1016.1 0.0
14/02:30am 24.7 20.6 -2.8 16 12.0 SE 9 13 5 7 1016.1 1015.7 0.0
14/02:00am 24.7 21.0 -2.8 16 12.0 SE 7 11 4 6 1016.3 1015.9 0.0
14/01:30am 25.9 22.0 -1.8 16 12.4 SE 9 13 5 7 1016.5 1016.0 0.0
14/01:00am 25.5 22.0 -1.3 17 12.1 SE 7 13 4 7 1016.5 1016.0 0.0
14/12:30am 25.9 22.2 -0.2 18 12.1 SE 9 13 5 7 1016.6 1016.1 0.0
14/12:00am 24.8 21.4 -0.4 19 11.5 SE 7 11 4 6 1016.7 1016.2 0.0
 
Date/Time
CST
Temp
°C
App
Temp
°C
Dew
Point
°C
Rel
Hum
%
Delta-T
°C
Wind Press
QNH
hPa
Press
MSL
hPa
Rain since
9am
mm
Dir  Spd
km/h
Gust
km/h
Spd
kts
Gust
kts
13/11:30pm 25.4 22.0 -0.6 18 11.9 SE 7 9 4 5 1016.6 1016.1 0.0
13/11:00pm 26.1 22.9 -0.8 17 12.3 SE 6 7 3 4 1016.7 1016.2 0.0
13/10:30pm 26.3 23.1 -0.7 17 12.4 SE 6 6 3 3 1016.8 1016.3 0.0
13/10:00pm 27.2 24.0 -0.8 16 12.9 SE 6 7 3 4 1016.7 1016.2 0.0
13/09:30pm 27.9 24.4 -1.1 15 13.4 SE 7 9 4 5 1016.6 1016.1 0.0
13/09:00pm 28.8 25.4 -0.4 15 13.7 SE 7 13 4 7 1016.2 1015.8 0.0
13/08:30pm 29.0 25.7 -0.2 15 13.8 SE 7 9 4 5 1016.0 1015.6 0.0
13/08:00pm 29.6 26.4 -0.7 14 14.3 SE 6 9 3 5 1015.8 1015.4 0.0
13/07:30pm 30.6 27.3 -0.9 13 14.9 ESE 6 7 3 4 1015.4 1015.0 0.0
13/07:00pm 31.9 28.6 0.1 13 15.4 ESE 7 15 4 8 1015.0 1014.6 0.0
13/06:30pm 32.8 28.3 -0.3 12 16.1 E 13 24 7 13 1014.7 1014.3 0.0
13/06:00pm 33.4 28.6 0.1 12 16.3 ESE 15 24 8 13 1014.5 1014.1 0.0
13/05:30pm 34.2 29.5 0.8 12 16.7 E 15 26 8 14 1014.4 1014.0 0.0
13/05:00pm 34.3 30.0 0.8 12 16.7 E 13 26 7 14 1014.5 1014.1 0.0
13/04:30pm 34.7 30.4 1.1 12 16.9 ESE 13 24 7 13 1014.5 1014.1 0.0
13/04:00pm 33.9 28.6 1.6 13 16.3 ESE 19 28 10 15 1014.6 1014.2 0.0
13/03:30pm 33.8 29.2 1.6 13 16.2 ESE 15 24 8 13 1014.9 1014.5 0.0
13/03:00pm 34.2 28.9 1.9 13 16.4 ESE 19 28 10 15 1015.3 1014.9 0.0
13/02:30pm 33.9 28.9 1.6 13 16.3 SE 17 32 9 17 1015.7 1015.3 0.0
13/02:00pm 33.3 28.6 1.2 13 16.0 ESE 15 30 8 16 1016.2 1015.8 0.0
13/01:30pm 34.2 29.5 2.9 14 16.1 E 17 33 9 18 1016.9 1016.4 0.0
13/01:00pm 32.3 27.2 4.2 17 14.7 E 20 37 11 20 1017.5 1017.0 0.0
13/12:30pm 33.1 28.0 3.9 16 15.2 E 20 33 11 18 1018.2 1017.8 0.0
13/12:00pm 31.9 27.5 4.6 18 14.3 E 17 30 9 16 1018.7 1018.3 0.0
13/11:30am 32.0 27.0 4.7 18 14.3 E 20 37 11 20 1019.2 1018.8 0.0
13/11:00am 31.2 25.6 3.3 17 14.2 ENE 22 33 12 18 1019.6 1019.2 0.0
13/10:30am 29.9 24.7 2.2 17 13.7 ENE 19 37 10 20 1019.9 1019.5 0.0
13/10:00am 29.0 24.3 0.7 16 13.6 NE 15 24 8 13 1020.4 1020.0 0.0
13/09:30am 27.6 22.7 -0.5 16 13.1 NE 15 20 8 11 1020.6 1020.2 0.0
13/09:00am 26.3 21.4 -0.7 17 12.4 ENE 15 20 8 11 1020.6 1020.2 0.0
13/08:30am 25.6 20.3 -0.5 18 11.9 ENE 17 24 9 13 1020.4 1020.0 0.0
13/08:00am 24.2 19.3 -0.2 20 11.1 E 15 20 8 11 1020.0 1019.6 0.0
13/07:30am 22.4 18.3 -0.3 22 10.2 E 11 17 6 9 1019.6 1019.2 0.0
13/07:00am 19.6 15.6 -2.1 23 9.2 E 9 11 5 6 1018.9 1018.5 0.0
13/06:30am 18.1 14.3 -3.9 22 8.8 NNE 7 9 4 5 1018.4 1018.0 0.0
13/06:00am 18.4 14.7 -4.9 20 9.2 E 6 6 3 3 1018.0 1017.5 0.0
13/05:30am 19.9 16.1 -5.8 17 10.1 NNE 6 7 3 4 1018.0 1017.5 0.0
13/05:00am 22.0 18.3 -4.9 16 11.0 ENE 6 9 3 5 1017.8 1017.3 0.0
13/04:30am 23.0 18.5 -6.9 13 11.9 ESE 9 13 5 7 1017.3 1016.8 0.0
13/04:00am 23.8 18.4 -8.4 11 12.5 ESE 13 19 7 10 1017.2 1016.7 0.0
13/03:30am 24.9 19.5 -8.8 10 13.1 E 13 20 7 11 1017.1 1016.6 0.0
13/03:00am 24.2 19.5 -9.3 10 12.9 ESE 9 19 5 10 1017.0 1016.5 0.0
13/02:30am 23.1 18.8 -8.9 11 12.2 SE 7 11 4 6 1017.0 1016.5 0.0
13/02:00am 22.6 18.5 -8.2 12 11.9 SE 6 7 3 4 1017.0 1016.5 0.0
13/01:30am 22.6 18.4 -7.2 13 11.7 SE 7 9 4 5 1017.0 1016.5 0.0
13/01:00am 23.2 19.0 -7.7 12 12.1 SE 7 9 4 5 1017.2 1016.7 0.0
13/12:30am 23.8 19.6 -7.3 12 12.3 SE 7 9 4 5 1017.2 1016.7 0.0
13/12:00am 24.5 20.1 -5.7 13 12.4 SE 9 13 5 7 1017.3 1016.8 0.0

Other formats

Comma delimited format used in spreadsheet applications
http://www.bom.gov.au/fwo/IDD60801/IDD60801.94221.axf

JavaScript Object Notation format (JSON) in row-major order
http://www.bom.gov.au/fwo/IDD60801/IDD60801.94221.json

Data quality

Most of these data are generated automatically and are frequently updated. Quality checks on data are not normally performed. It is possible for incorrect values to appear. Refer to information at About Latest Weather Observations and please check the disclaimer before using these data.